Alcot, South Carolina
Current Conditions -  °F | °C
As of 2:15 AM on Thursday 23 Oct 2014 (Local Time) from KHVS Reporting Station
Clear Clear  
Wind Chill: 52°   Ceiling: Unl
Heat Index: 52°   Visibility: 10mi
Dew Point: 28°   Wind: 3mph
Humidity: 41%   Direction: 330°NNW
Pressure: 30.07"   Gusts: NA
Location:  34.2324°N, 80.2824°W
Report Text: KHVS 230615Z AUTO 33003KT 10SM CLR 11/M02 A3007 RMK AO2
Loading
Personal Weather Stations






























Interactive Weather Map
Tropical Storm Tracking
New forecast layout! Learn more

10-Day Weather Forecast

Advertisements
Track Severe Weather on mobile